Terminal Aerodrome Forecast
Issued by NWS Cleveland, OH

Home | Current Version | Previous Version | Graphics & Text | Print | Product List | Glossary On
Versions: 1 2 3 4 5 6 7 8 9 10 11 12 13
212
FTUS41 KCLE 261733
TAFCAK
TAF
KCAK 261733Z 2618/2718 19012KT P6SM FEW040 BKN250
     FM270000 17010KT P6SM BKN250
     FM271500 18014G22KT P6SM SCT045 BKN200=

USA.gov is the U.S. government's official web portal to all federal, state and local government web resources and services.